Time;durP1;ratioP1;P1;durP2;ratioP2;P2;SDS_P1;SDS_P2;PMS_P1;PMS_P2;Temp;Humidity;BMP_temperature;BMP_pressure;BME280_temperature;BME280_humidity;BME280_pressure;Samples;Min_cycle;Max_cycle;Signal;HPM_P1;HPM_P2
2021/03/19 00:01:50;;;;;;;14.70;9.75;;;2.20;99.90;;;;;;5063845;28;20218;-80
2021/03/19 00:04:16;;;;;;;11.43;8.48;;;2.00;99.90;;;;;;5073748;28;20191;-80
2021/03/19 00:06:42;;;;;;;16.17;8.55;;;2.10;99.90;;;;;;5067501;28;20214;-80
2021/03/19 00:09:10;;;;;;;13.02;9.57;;;2.20;99.90;;;;;;5060729;28;20253;-80
2021/03/19 00:11:36;;;;;;;11.43;9.15;;;2.50;99.90;;;;;;5060056;28;20249;-81
2021/03/19 00:14:04;;;;;;;14.18;9.70;;;2.40;99.90;;;;;;5060868;28;20222;-80
2021/03/19 00:16:31;;;;;;;11.10;8.23;;;2.30;99.90;;;;;;5059606;28;20229;-80
2021/03/19 00:18:57;;;;;;;12.55;9.10;;;2.20;99.90;;;;;;5061148;28;20210;-81
2021/03/19 00:21:24;;;;;;;14.00;9.48;;;2.20;99.90;;;;;;5060087;28;20207;-79
2021/03/19 00:23:50;;;;;;;15.50;10.13;;;2.10;99.90;;;;;;5059995;28;20760;-79
2021/03/19 00:26:16;;;;;;;13.95;9.95;;;2.00;99.90;;;;;;5060923;28;20203;-79
2021/03/19 00:28:42;;;;;;;16.63;11.18;;;1.90;99.90;;;;;;5060553;28;20241;-81
2021/03/19 00:31:08;;;;;;;17.40;10.77;;;2.00;99.90;;;;;;5059545;28;20206;-81
2021/03/19 00:33:35;;;;;;;16.00;10.45;;;2.00;99.90;;;;;;5059023;28;20226;-80
2021/03/19 00:36:02;;;;;;;19.58;11.60;;;2.10;99.90;;;;;;5065021;28;20735;-79
2021/03/19 00:38:28;;;;;;;15.88;10.48;;;2.10;99.90;;;;;;5069692;28;20199;-80
2021/03/19 00:40:54;;;;;;;16.58;11.00;;;2.20;99.90;;;;;;5069683;28;20210;-80
2021/03/19 00:43:20;;;;;;;16.92;10.90;;;2.20;99.90;;;;;;5060510;28;20238;-79
2021/03/19 00:45:46;;;;;;;15.18;10.60;;;2.30;99.90;;;;;;5059507;28;20203;-80
2021/03/19 00:48:12;;;;;;;15.82;11.73;;;2.20;99.90;;;;;;5058889;28;20668;-81
2021/03/19 00:50:42;;;;;;;18.58;12.07;;;2.20;99.90;;;;;;5059101;28;20199;-80
2021/03/19 00:53:09;;;;;;;19.17;10.77;;;2.30;99.90;;;;;;5058853;28;20223;-79
2021/03/19 00:55:36;;;;;;;19.92;12.82;;;2.30;99.90;;;;;;5058296;28;20735;-79
2021/03/19 00:58:02;;;;;;;16.35;10.70;;;2.40;99.90;;;;;;5057700;28;20693;-81
2021/03/19 01:00:31;;;;;;;15.23;11.35;;;2.30;99.90;;;;;;5057639;28;20234;-80
2021/03/19 01:02:57;;;;;;;13.30;10.45;;;2.40;99.90;;;;;;5057365;28;20272;-80
2021/03/19 01:05:25;;;;;;;20.15;12.77;;;2.40;99.90;;;;;;5057422;28;20214;-79
2021/03/19 01:07:52;;;;;;;21.10;12.52;;;2.50;99.90;;;;;;5058411;28;20218;-80
2021/03/19 01:10:21;;;;;;;24.25;15.75;;;2.90;99.90;;;;;;5058840;28;20256;-80
2021/03/19 01:12:47;;;;;;;24.65;15.65;;;2.70;99.90;;;;;;5058566;28;20218;-80
2021/03/19 01:15:14;;;;;;;29.58;18.20;;;2.80;99.90;;;;;;5058297;28;20214;-80
2021/03/19 01:17:40;;;;;;;27.17;17.33;;;2.70;99.90;;;;;;5059266;28;20602;-78
2021/03/19 01:20:09;;;;;;;26.63;17.77;;;2.70;99.90;;;;;;5076112;28;20194;-80
2021/03/19 01:22:35;;;;;;;30.55;20.38;;;2.70;99.90;;;;;;5078708;28;20218;-80
2021/03/19 01:25:03;;;;;;;24.63;16.65;;;2.70;99.90;;;;;;5066157;28;20203;-81
2021/03/19 01:27:29;;;;;;;28.08;17.77;;;2.70;99.90;;;;;;5061378;28;20203;-80
2021/03/19 01:29:55;;;;;;;26.00;17.75;;;2.60;99.90;;;;;;5057684;28;20211;-80
2021/03/19 01:32:21;;;;;;;24.58;15.75;;;2.70;99.90;;;;;;5058225;28;20690;-80
2021/03/19 01:34:47;;;;;;;20.02;14.40;;;2.70;99.90;;;;;;5058657;28;20243;-80
2021/03/19 01:37:13;;;;;;;26.83;16.23;;;2.70;99.90;;;;;;5057678;28;20579;-81
2021/03/19 01:39:39;;;;;;;22.38;15.40;;;2.60;99.90;;;;;;5058072;28;20199;-79
2021/03/19 01:42:08;;;;;;;25.45;14.73;;;2.50;99.90;;;;;;5057877;28;20284;-80
2021/03/19 01:44:39;;;;;;;26.08;15.20;;;2.50;99.90;;;;;;5058293;28;20183;-80
2021/03/19 01:47:48;;;;;;;27.90;16.35;;;2.40;99.90;;;;;;5058195;28;20556;-79
2021/03/19 01:50:51;;;;;;;28.25;15.32;;;2.40;99.90;;;;;;4980202;28;20214;-80
2021/03/19 01:53:55;;;;;;;26.65;14.85;;;2.30;99.90;;;;;;5059114;28;20225;-81
2021/03/19 01:56:58;;;;;;;27.50;12.38;;;2.30;99.90;;;;;;5076103;28;20267;-77
2021/03/19 02:00:02;;;;;;;19.13;12.77;;;2.50;99.90;;;;;;5058433;28;20232;-80
2021/03/19 02:03:05;;;;;;;17.48;11.40;;;2.40;99.90;;;;;;5057276;28;20272;-80
2021/03/19 02:06:09;;;;;;;21.05;13.20;;;2.30;99.90;;;;;;5069791;28;20210;-79
2021/03/19 02:09:12;;;;;;;24.55;12.98;;;2.30;99.90;;;;;;5069266;28;20210;-79
2021/03/19 02:12:16;;;;;;;22.85;15.57;;;2.10;99.90;;;;;;5063919;28;20214;-80
2021/03/19 02:15:19;;;;;;;25.40;13.82;;;2.20;99.90;;;;;;5060001;28;20226;-78
2021/03/19 02:18:23;;;;;;;22.85;15.05;;;2.10;99.90;;;;;;5060620;28;20541;-79
2021/03/19 02:21:27;;;;;;;23.35;14.63;;;1.70;99.90;;;;;;5060461;28;20213;-80
2021/03/19 02:24:30;;;;;;;27.10;15.73;;;1.90;99.90;;;;;;5058336;28;20280;-80
2021/03/19 02:27:34;;;;;;;26.10;14.95;;;2.00;99.90;;;;;;5057867;28;20199;-79
2021/03/19 02:30:37;;;;;;;30.10;16.48;;;1.90;99.90;;;;;;5057404;28;20241;-79
2021/03/19 02:33:04;;;;;;;25.60;17.13;;;2.00;99.90;;;;;;5059640;28;20226;-79
2021/03/19 02:35:31;;;;;;;26.63;14.80;;;1.90;99.90;;;;;;5058831;28;20582;-80
2021/03/19 02:37:57;;;;;;;29.02;15.93;;;1.80;99.90;;;;;;5057889;28;20211;-79
2021/03/19 02:40:25;;;;;;;27.65;16.10;;;1.80;99.90;;;;;;5060737;28;20681;-81
2021/03/19 02:42:51;;;;;;;29.00;16.15;;;1.80;99.90;;;;;;5071924;23;20239;-80
2021/03/19 02:45:21;;;;;;;24.08;16.02;;;1.90;99.90;;;;;;5035193;28;20212;-80
2021/03/19 02:47:47;;;;;;;28.88;15.25;;;1.90;99.90;;;;;;5034775;28;20207;-80
2021/03/19 02:50:15;;;;;;;34.67;18.13;;;1.90;99.90;;;;;;5034797;28;20666;-80
2021/03/19 02:52:43;;;;;;;39.78;17.60;;;1.80;99.90;;;;;;5034898;28;20270;-80
2021/03/19 02:55:12;;;;;;;33.10;18.83;;;1.80;99.90;;;;;;5036668;28;20211;-80
2021/03/19 02:57:38;;;;;;;51.28;22.88;;;1.80;99.90;;;;;;5035840;28;20203;-80
2021/03/19 03:00:07;;;;;;;49.75;21.00;;;1.80;99.90;;;;;;5038643;28;20219;-80
2021/03/19 03:02:33;;;;;;;36.28;20.45;;;1.80;99.90;;;;;;5037692;28;20636;-79
2021/03/19 03:04:59;;;;;;;51.90;19.60;;;1.90;99.90;;;;;;5038654;28;20196;-79
2021/03/19 03:07:29;;;;;;;46.58;21.38;;;2.00;99.90;;;;;;5039414;28;20210;-80
2021/03/19 03:09:55;;;;;;;54.97;22.08;;;2.00;99.90;;;;;;5040473;28;20577;-78
2021/03/19 03:12:21;;;;;;;63.40;25.33;;;1.80;99.90;;;;;;5042033;28;20234;-80
2021/03/19 03:14:48;;;;;;;57.60;24.33;;;1.90;99.90;;;;;;5038982;28;20266;-79
2021/03/19 03:17:15;;;;;;;65.63;26.02;;;1.90;99.90;;;;;;5038324;28;20211;-77
2021/03/19 03:19:42;;;;;;;51.05;23.05;;;1.70;99.90;;;;;;5039086;28;20207;-79
2021/03/19 03:22:09;;;;;;;45.60;21.52;;;2.00;99.90;;;;;;5038168;28;20342;-79
2021/03/19 03:24:36;;;;;;;52.75;18.70;;;1.70;99.90;;;;;;5037966;28;20609;-79
2021/03/19 03:27:03;;;;;;;41.08;18.50;;;2.00;99.90;;;;;;5037833;28;20208;-78
2021/03/19 03:29:29;;;;;;;47.35;21.05;;;2.00;99.90;;;;;;5038124;28;20262;-78
2021/03/19 03:31:56;;;;;;;53.30;21.23;;;1.80;99.90;;;;;;5038622;28;20211;-80
2021/03/19 03:34:23;;;;;;;38.58;18.67;;;1.80;99.90;;;;;;5042065;28;20242;-80
2021/03/19 03:36:49;;;;;;;53.97;23.08;;;1.80;99.90;;;;;;5041197;28;20207;-80
2021/03/19 03:39:21;;;;;;;42.28;22.98;;;1.70;99.90;;;;;;5039306;28;20200;-79
2021/03/19 03:41:48;;;;;;;38.83;20.80;;;1.60;99.90;;;;;;5038117;28;20203;-79
2021/03/19 03:44:16;;;;;;;41.38;19.77;;;1.70;99.90;;;;;;5039063;28;20238;-80
2021/03/19 03:46:44;;;;;;;47.35;22.20;;;1.70;99.90;;;;;;5037643;28;20441;-80
2021/03/19 03:49:11;;;;;;;45.47;21.52;;;1.70;99.90;;;;;;5038331;28;20454;-80
2021/03/19 03:51:37;;;;;;;42.45;19.48;;;1.60;99.90;;;;;;5038427;28;20302;-80
2021/03/19 03:54:04;;;;;;;42.20;21.10;;;1.70;99.90;;;;;;5039316;28;20234;-80
2021/03/19 03:56:31;;;;;;;57.20;21.65;;;1.80;99.90;;;;;;5039519;28;20208;-80
2021/03/19 03:58:57;;;;;;;36.45;19.40;;;1.90;99.90;;;;;;5041546;28;20219;-79
2021/03/19 04:01:24;;;;;;;47.07;22.57;;;1.70;99.90;;;;;;5045818;28;20438;-78
2021/03/19 04:03:51;;;;;;;46.03;22.30;;;1.60;99.90;;;;;;5046399;28;20466;-79
2021/03/19 04:06:18;;;;;;;41.35;20.58;;;1.50;99.90;;;;;;5045331;28;20218;-78
2021/03/19 04:08:44;;;;;;;41.63;20.65;;;1.60;99.90;;;;;;5037397;28;20270;-80
2021/03/19 04:11:13;;;;;;;44.05;19.25;;;1.60;99.90;;;;;;5037010;28;20211;-78
2021/03/19 04:13:40;;;;;;;48.25;19.27;;;1.60;99.90;;;;;;5036663;28;20255;-79
2021/03/19 04:16:08;;;;;;;43.78;20.27;;;1.70;99.90;;;;;;5037273;28;20215;-80
2021/03/19 04:18:35;;;;;;;42.72;19.15;;;1.70;99.90;;;;;;5037584;28;20214;-79
2021/03/19 04:21:07;;;;;;;46.08;21.27;;;1.50;99.90;;;;;;5037590;28;20812;-80
2021/03/19 04:23:34;;;;;;;50.28;22.63;;;1.60;99.90;;;;;;5037578;28;20541;-80
2021/03/19 04:26:00;;;;;;;45.00;21.08;;;1.60;99.90;;;;;;5037567;28;20441;-79
2021/03/19 04:28:31;;;;;;;45.30;22.30;;;1.60;99.90;;;;;;5036434;28;20445;-80
2021/03/19 04:30:57;;;;;;;36.38;20.02;;;1.40;99.90;;;;;;5037744;28;20228;-80
2021/03/19 04:33:26;;;;;;;41.50;19.33;;;1.30;99.90;;;;;;5037664;28;20334;-80
2021/03/19 04:35:57;;;;;;;47.00;21.75;;;1.20;99.90;;;;;;5039089;28;20662;-80
2021/03/19 04:38:24;;;;;;;36.55;20.42;;;1.20;99.90;;;;;;5037388;28;20637;-79
2021/03/19 04:40:50;;;;;;;46.85;20.60;;;1.30;99.90;;;;;;5037674;28;20212;-80
2021/03/19 04:43:16;;;;;;;43.75;19.85;;;1.20;99.90;;;;;;5037778;28;20639;-80
2021/03/19 04:45:44;;;;;;;36.15;17.38;;;1.20;99.90;;;;;;5037585;28;20662;-78
2021/03/19 04:48:10;;;;;;;44.00;24.10;;;1.20;99.90;;;;;;5035320;28;20210;-78
2021/03/19 04:50:38;;;;;;;61.78;25.60;;;1.10;99.90;;;;;;5035377;28;20365;-79
2021/03/19 04:53:04;;;;;;;58.88;27.92;;;1.00;99.90;;;;;;5034978;28;20269;-78
2021/03/19 04:55:31;;;;;;;60.05;25.52;;;0.80;99.90;;;;;;5035236;28;20204;-79
2021/03/19 04:57:57;;;;;;;46.90;23.35;;;0.70;99.90;;;;;;5035607;28;20771;-78
2021/03/19 05:00:24;;;;;;;67.13;27.75;;;0.70;99.90;;;;;;5035930;28;20218;-78
2021/03/19 05:02:51;;;;;;;59.67;27.02;;;0.90;99.90;;;;;;5035576;28;20231;-80
2021/03/19 05:05:20;;;;;;;53.20;25.48;;;0.90;99.90;;;;;;5035567;28;20607;-80
2021/03/19 05:07:47;;;;;;;53.22;25.75;;;1.10;99.90;;;;;;5037101;28;20208;-81
2021/03/19 05:10:15;;;;;;;48.75;22.80;;;1.10;99.90;;;;;;5035545;28;20203;-79
2021/03/19 05:12:41;;;;;;;52.88;23.35;;;0.90;99.90;;;;;;5036015;28;20223;-79
2021/03/19 05:15:08;;;;;;;54.22;23.40;;;1.00;99.90;;;;;;5036356;28;20234;-78
2021/03/19 05:17:35;;;;;;;55.28;26.58;;;0.80;99.90;;;;;;5036587;28;20207;-78
2021/03/19 05:20:01;;;;;;;56.47;24.67;;;0.70;99.90;;;;;;5037229;28;20203;-79
2021/03/19 05:22:27;;;;;;;47.30;26.17;;;0.80;99.90;;;;;;5035289;28;20634;-78
2021/03/19 05:24:55;;;;;;;52.58;24.55;;;0.90;99.90;;;;;;5036133;28;20196;-78
2021/03/19 05:27:21;;;;;;;56.30;23.85;;;0.90;99.90;;;;;;5036534;28;20242;-78
2021/03/19 05:29:47;;;;;;;56.92;25.45;;;1.00;99.90;;;;;;5036723;28;20215;-79
2021/03/19 05:32:13;;;;;;;46.45;24.40;;;0.90;99.90;;;;;;5036874;28;20220;-79
2021/03/19 05:34:39;;;;;;;51.88;27.08;;;0.80;99.90;;;;;;5037710;28;20223;-81
2021/03/19 05:37:05;;;;;;;50.00;23.95;;;0.60;99.90;;;;;;5038173;28;20211;-79
2021/03/19 05:39:32;;;;;;;60.05;25.58;;;0.60;99.90;;;;;;5054236;28;20187;-78
2021/03/19 05:41:59;;;;;;;59.95;26.52;;;0.70;99.90;;;;;;5037423;28;20242;-78
2021/03/19 05:44:27;;;;;;;47.80;24.65;;;0.90;99.90;;;;;;5037946;28;20219;-79
2021/03/19 05:47:00;;;;;;;56.28;27.23;;;0.90;99.90;;;;;;5037706;28;20210;-79
2021/03/19 05:49:28;;;;;;;45.58;21.85;;;1.00;99.90;;;;;;5037293;28;20188;-80
2021/03/19 05:51:56;;;;;;;49.95;25.33;;;0.90;99.90;;;;;;5036732;28;20207;-79
2021/03/19 05:54:25;;;;;;;39.75;21.88;;;1.00;99.90;;;;;;5036691;28;20238;-79
2021/03/19 05:57:16;;;;;;;51.47;24.40;;;0.80;99.90;;;;;;5036501;28;20628;-80
2021/03/19 05:59:47;;;;;;;48.42;22.30;;;0.80;99.90;;;;;;5035782;28;20631;-79
2021/03/19 06:02:20;;;;;;;47.28;21.88;;;0.90;99.90;;;;;;5036536;28;20246;-79
2021/03/19 06:04:59;;;;;;;58.00;22.88;;;0.80;99.90;;;;;;5036472;28;20206;-79
2021/03/19 06:07:37;;;;;;;40.88;22.40;;;0.80;99.90;;;;;;5035832;28;20183;-80
2021/03/19 06:10:16;;;;;;;47.63;21.88;;;0.90;99.90;;;;;;5037150;28;20210;-79
2021/03/19 06:12:44;;;;;;;39.78;22.55;;;1.00;99.90;;;;;;5036591;28;20644;-78
2021/03/19 06:15:23;;;;;;;54.40;22.27;;;1.00;99.90;;;;;;5036668;28;20215;-79
2021/03/19 06:17:50;;;;;;;41.13;21.15;;;1.00;99.90;;;;;;5036542;28;20188;-79
2021/03/19 06:20:18;;;;;;;43.25;19.25;;;1.00;99.90;;;;;;5037171;28;20210;-79
2021/03/19 06:22:47;;;;;;;39.95;21.88;;;1.10;99.90;;;;;;5036886;28;20235;-78
2021/03/19 06:25:18;;;;;;;45.03;19.77;;;1.10;99.90;;;;;;5038472;28;20207;-79
2021/03/19 06:27:51;;;;;;;40.10;22.00;;;1.00;99.90;;;;;;5037249;28;20638;-80
2021/03/19 06:30:25;;;;;;;36.90;17.88;;;1.10;99.90;;;;;;5038024;28;20323;-79
2021/03/19 06:33:20;;;;;;;29.08;18.50;;;1.10;99.90;;;;;;5038704;28;20220;-78
2021/03/19 06:35:48;;;;;;;35.33;20.83;;;1.10;99.90;;;;;;5045627;28;20192;-79
2021/03/19 06:38:30;;;;;;;38.33;21.00;;;1.00;99.90;;;;;;5047048;28;20203;-79
2021/03/19 06:41:12;;;;;;;37.22;18.20;;;1.10;99.90;;;;;;5048480;28;20223;-79
2021/03/19 06:43:39;;;;;;;35.58;18.48;;;1.30;99.90;;;;;;5047953;28;20227;-79
2021/03/19 06:46:10;;;;;;;28.17;15.40;;;1.20;99.90;;;;;;5048651;28;20210;-79
2021/03/19 06:48:40;;;;;;;33.40;17.40;;;1.30;99.90;;;;;;5042915;28;20211;-81
2021/03/19 06:51:10;;;;;;;36.65;17.77;;;1.40;99.90;;;;;;5042850;28;20286;-80
2021/03/19 06:53:37;;;;;;;30.45;19.65;;;1.30;99.90;;;;;;5049772;28;20307;-81
2021/03/19 06:56:15;;;;;;;35.08;19.15;;;0.90;99.90;;;;;;5045214;28;20204;-80
2021/03/19 06:58:46;;;;;;;36.70;18.15;;;1.00;99.90;;;;;;5050211;28;20207;-79
2021/03/19 07:01:28;;;;;;;31.98;18.25;;;1.10;99.90;;;;;;5048925;28;20252;-78
2021/03/19 07:04:11;;;;;;;32.47;19.20;;;1.10;99.90;;;;;;5052588;28;20283;-79
2021/03/19 07:07:13;;;;;;;33.70;18.38;;;1.20;99.90;;;;;;5048786;28;20215;-81
2021/03/19 07:09:50;;;;;;;33.00;18.58;;;1.20;99.90;;;;;;5042727;28;20199;-81
2021/03/19 07:12:28;;;;;;;26.52;15.15;;;1.20;99.90;;;;;;5041961;28;20219;-81
2021/03/19 07:15:13;;;;;;;27.65;16.73;;;1.20;99.90;;;;;;5042473;28;20215;-81
2021/03/19 07:17:55;;;;;;;25.98;15.30;;;1.10;99.90;;;;;;5043117;28;20196;-81
2021/03/19 07:20:40;;;;;;;26.40;14.82;;;1.10;99.90;;;;;;5043445;28;20242;-81
2021/03/19 07:23:14;;;;;;;29.30;15.77;;;1.40;99.90;;;;;;5047811;28;20318;-81
2021/03/19 07:26:03;;;;;;;27.83;15.45;;;1.40;99.90;;;;;;5043658;28;20210;-81
2021/03/19 07:28:46;;;;;;;28.13;17.30;;;1.80;99.90;;;;;;5042649;28;20566;-81
2021/03/19 07:31:27;;;;;;;26.05;14.80;;;1.70;99.90;;;;;;5047386;28;20188;-80
2021/03/19 07:34:09;;;;;;;25.63;14.05;;;1.70;99.90;;;;;;5045232;28;20702;-81
2021/03/19 07:36:51;;;;;;;33.35;16.30;;;1.10;99.90;;;;;;5042689;28;20684;-80
2021/03/19 07:40:01;;;;;;;22.35;13.63;;;1.80;99.90;;;;;;5041868;28;20195;-81
2021/03/19 07:42:52;;;;;;;20.27;11.98;;;1.80;99.90;;;;;;4961999;28;20234;-81
2021/03/19 07:45:25;;;;;;;21.33;12.85;;;1.60;99.90;;;;;;5037752;28;20210;-81
2021/03/19 07:48:17;;;;;;;20.58;11.00;;;1.70;99.90;;;;;;5043967;28;20188;-81
2021/03/19 07:50:50;;;;;;;21.70;12.75;;;1.90;99.90;;;;;;5042350;28;20192;-81
2021/03/19 07:53:40;;;;;;;21.98;13.23;;;2.10;99.90;;;;;;5041857;28;20273;-81
2021/03/19 07:56:17;;;;;;;22.92;14.50;;;2.00;99.90;;;;;;5042504;28;20222;-81
2021/03/19 07:58:53;;;;;;;19.80;13.40;;;1.80;99.90;;;;;;5042820;28;20196;-81
2021/03/19 08:01:30;;;;;;;24.55;14.80;;;2.00;99.90;;;;;;5042155;28;20192;-81
2021/03/19 08:04:04;;;;;;;22.05;15.80;;;2.10;99.90;;;;;;5041749;28;20219;-79
2021/03/19 08:06:36;;;;;;;24.67;14.18;;;2.10;99.90;;;;;;5040071;28;20206;-79
2021/03/19 08:09:07;;;;;;;20.55;12.20;;;2.10;99.90;;;;;;5039796;28;20180;-80
2021/03/19 08:11:41;;;;;;;21.05;13.68;;;2.00;99.90;;;;;;5039863;28;20192;-79
2021/03/19 08:14:30;;;;;;;22.45;13.60;;;2.20;99.90;;;;;;5041190;28;20224;-79
2021/03/19 08:17:03;;;;;;;21.88;12.95;;;2.20;99.90;;;;;;5039969;28;20195;-81
2021/03/19 08:19:37;;;;;;;17.00;12.60;;;2.20;99.90;;;;;;5039037;28;20643;-79
2021/03/19 08:22:16;;;;;;;18.60;12.00;;;2.30;99.90;;;;;;5039385;28;20198;-80
2021/03/19 08:24:50;;;;;;;15.60;11.48;;;2.10;99.90;;;;;;5038920;28;20551;-80
2021/03/19 08:27:30;;;;;;;20.13;12.80;;;2.00;99.90;;;;;;5038948;28;20221;-80
2021/03/19 08:30:05;;;;;;;13.98;11.10;;;2.20;99.90;;;;;;5039160;28;20192;-81
2021/03/19 08:33:07;;;;;;;17.48;11.88;;;2.60;99.90;;;;;;5039605;28;20246;-81
2021/03/19 08:35:38;;;;;;;17.20;11.00;;;2.70;99.90;;;;;;4960686;29;20637;-81
2021/03/19 08:38:12;;;;;;;13.70;9.50;;;2.50;99.90;;;;;;4960555;29;20211;-81
2021/03/19 08:40:43;;;;;;;13.23;10.38;;;2.60;99.90;;;;;;5003499;28;20199;-80
2021/03/19 08:43:18;;;;;;;12.73;10.10;;;2.70;99.90;;;;;;5061486;23;20235;-78
2021/03/19 08:45:45;;;;;;;8.88;6.78;;;2.50;99.90;;;;;;5059930;28;20187;-78
2021/03/19 08:48:14;;;;;;;16.10;10.30;;;2.40;99.90;;;;;;5057886;28;20211;-80
2021/03/19 08:50:44;;;;;;;19.83;11.05;;;2.30;99.90;;;;;;5058061;28;20315;-78
2021/03/19 08:53:18;;;;;;;21.08;10.65;;;2.30;99.90;;;;;;5057915;28;20223;-79
2021/03/19 08:55:47;;;;;;;15.02;11.45;;;2.30;99.90;;;;;;5060622;28;20194;-79
2021/03/19 08:58:46;;;;;;;13.05;9.23;;;2.10;99.90;;;;;;5060685;28;20233;-79
2021/03/19 09:01:13;;;;;;;12.38;8.07;;;1.80;99.90;;;;;;5061387;28;20187;-79
2021/03/19 09:03:52;;;;;;;19.17;10.10;;;1.60;99.90;;;;;;5061151;28;20246;-79
2021/03/19 09:06:23;;;;;;;19.60;10.38;;;1.50;99.90;;;;;;5061902;28;20214;-80
2021/03/19 09:09:12;;;;;;;23.77;14.10;;;1.50;99.90;;;;;;5061663;28;20206;-79
2021/03/19 09:12:02;;;;;;;18.67;10.77;;;1.40;99.90;;;;;;5041677;28;20199;-79
2021/03/19 09:14:39;;;;;;;16.98;10.65;;;1.20;99.90;;;;;;5061796;28;20588;-81
2021/03/19 09:17:07;;;;;;;17.90;12.05;;;1.40;99.90;;;;;;5061670;28;20187;-78
2021/03/19 09:20:05;;;;;;;19.65;11.07;;;1.40;99.90;;;;;;5060872;28;20226;-79
2021/03/19 09:22:42;;;;;;;16.02;10.20;;;1.80;99.90;;;;;;5062157;28;20257;-79
2021/03/19 09:25:41;;;;;;;20.90;12.07;;;1.70;99.90;;;;;;5063607;28;20190;-80
2021/03/19 09:28:26;;;;;;;20.10;11.55;;;2.10;99.90;;;;;;5062351;28;20187;-79
2021/03/19 09:30:56;;;;;;;20.25;11.30;;;2.20;99.90;;;;;;5063550;28;20199;-80
2021/03/19 09:34:14;;;;;;;20.05;10.65;;;2.30;99.90;;;;;;5066547;28;20725;-79
2021/03/19 09:37:00;;;;;;;19.98;11.82;;;2.40;99.90;;;;;;4967125;29;20269;-79
2021/03/19 09:40:12;;;;;;;14.77;8.85;;;2.50;99.90;;;;;;4966734;29;20829;-78
2021/03/19 09:42:55;;;;;;;13.65;8.73;;;2.60;99.90;;;;;;4992604;28;20271;-79
2021/03/19 09:46:01;;;;;;;18.70;9.77;;;2.60;99.90;;;;;;5002020;28;20212;-79
2021/03/19 09:48:32;;;;;;;17.17;9.73;;;2.80;99.90;;;;;;5058177;28;20230;-78
2021/03/19 09:51:07;;;;;;;12.52;8.88;;;2.80;99.90;;;;;;5063493;28;20187;-79
2021/03/19 09:53:38;;;;;;;16.38;9.93;;;2.70;99.90;;;;;;5064182;28;20233;-80
2021/03/19 09:56:17;;;;;;;13.30;8.70;;;2.60;99.90;;;;;;5060926;28;20195;-79
2021/03/19 09:58:45;;;;;;;11.90;8.50;;;2.80;99.90;;;;;;5061396;28;20194;-80
2021/03/19 10:01:20;;;;;;;14.52;6.03;;;3.10;99.90;;;;;;5059330;28;20211;-79
2021/03/19 10:03:50;;;;;;;10.40;7.38;;;3.00;99.90;;;;;;5058023;28;20257;-78
2021/03/19 10:06:22;;;;;;;9.93;6.85;;;3.60;99.90;;;;;;5059197;28;20206;-79
2021/03/19 10:08:48;;;;;;;9.10;6.60;;;3.50;99.90;;;;;;5058234;28;20576;-79
2021/03/19 10:11:17;;;;;;;7.63;5.88;;;3.60;99.90;;;;;;5059048;28;20217;-79
2021/03/19 10:13:43;;;;;;;8.25;5.20;;;3.40;99.90;;;;;;5064418;28;20599;-78
2021/03/19 10:16:21;;;;;;;7.60;6.47;;;3.60;99.90;;;;;;5062926;28;20202;-79
2021/03/19 10:18:47;;;;;;;10.23;7.03;;;3.50;99.90;;;;;;5062584;28;20191;-79
2021/03/19 10:21:17;;;;;;;8.85;5.50;;;3.50;99.90;;;;;;5062409;28;20677;-80
2021/03/19 10:23:47;;;;;;;5.40;4.22;;;3.40;99.90;;;;;;5062427;28;20223;-79
2021/03/19 10:26:23;;;;;;;7.00;4.78;;;3.30;99.90;;;;;;5062131;28;20203;-80
2021/03/19 10:28:52;;;;;;;6.38;4.85;;;3.30;99.90;;;;;;5062846;28;20187;-79
2021/03/19 10:31:21;;;;;;;4.07;3.67;;;3.20;99.90;;;;;;5063252;28;20207;-79
2021/03/19 10:33:55;;;;;;;8.68;5.80;;;3.10;99.90;;;;;;5062344;28;20357;-80
2021/03/19 10:36:34;;;;;;;6.78;5.78;;;2.90;99.90;;;;;;5062784;28;20562;-79
2021/03/19 10:39:09;;;;;;;7.35;5.65;;;2.80;99.90;;;;;;5077058;28;20225;-80
2021/03/19 10:41:42;;;;;;;5.30;4.75;;;2.80;99.90;;;;;;5075231;28;20182;-79
2021/03/19 10:44:13;;;;;;;5.13;4.63;;;2.90;99.90;;;;;;5072625;28;20231;-80
2021/03/19 10:46:46;;;;;;;6.90;5.82;;;2.90;99.90;;;;;;5077686;28;20187;-79
2021/03/19 10:49:16;;;;;;;5.55;5.00;;;3.20;99.90;;;;;;5076135;28;20188;-79
2021/03/19 10:51:49;;;;;;;5.47;4.82;;;3.50;99.90;;;;;;5077609;28;20188;-79
2021/03/19 10:54:21;;;;;;;6.15;4.82;;;3.60;99.90;;;;;;5072607;28;20257;-78
2021/03/19 10:56:51;;;;;;;8.25;5.03;;;3.90;99.90;;;;;;5075299;28;20269;-78
2021/03/19 10:59:32;;;;;;;6.90;3.85;;;3.90;99.90;;;;;;5075435;28;20203;-78
2021/03/19 11:02:15;;;;;;;3.78;3.15;;;3.80;99.90;;;;;;5078508;28;20183;-78
2021/03/19 11:04:43;;;;;;;4.68;3.58;;;3.90;99.90;;;;;;5079879;28;20183;-78
2021/03/19 11:07:32;;;;;;;5.20;3.17;;;3.90;99.90;;;;;;5073264;28;20235;-79
2021/03/19 11:10:12;;;;;;;3.30;3.05;;;3.60;99.90;;;;;;5060757;28;20217;-79
2021/03/19 11:12:44;;;;;;;6.05;4.35;;;3.70;99.90;;;;;;5068637;28;20218;-79
2021/03/19 11:15:13;;;;;;;5.13;3.80;;;3.20;99.90;;;;;;5063933;28;20218;-81
2021/03/19 11:17:39;;;;;;;5.00;3.78;;;3.40;99.90;;;;;;5072382;28;20203;-79
2021/03/19 11:20:09;;;;;;;6.68;3.95;;;3.00;99.90;;;;;;5071983;28;20217;-80
2021/03/19 11:22:38;;;;;;;5.25;3.55;;;3.00;99.90;;;;;;5070687;28;20568;-80
2021/03/19 11:25:30;;;;;;;8.32;4.43;;;3.10;99.90;;;;;;5068944;28;20195;-79
2021/03/19 11:27:57;;;;;;;5.50;3.97;;;3.50;99.90;;;;;;5073859;28;20191;-80
2021/03/19 11:30:31;;;;;;;3.95;3.20;;;4.00;99.90;;;;;;5076440;28;20229;-80
2021/03/19 11:33:07;;;;;;;4.35;3.95;;;4.10;99.90;;;;;;5071000;28;20229;-79
2021/03/19 11:35:34;;;;;;;5.45;4.05;;;4.20;99.90;;;;;;5068128;28;20241;-79
2021/03/19 11:38:01;;;;;;;5.60;3.20;;;4.10;99.90;;;;;;5070037;28;20199;-80
2021/03/19 11:40:38;;;;;;;6.68;2.20;;;4.00;99.90;;;;;;5072193;28;20210;-80
2021/03/19 11:43:07;;;;;;;3.53;1.80;;;3.70;99.90;;;;;;5070623;28;20230;-79
2021/03/19 11:45:37;;;;;;;5.32;2.15;;;3.80;99.90;;;;;;5067121;28;20530;-80
2021/03/19 11:48:32;;;;;;;5.78;2.30;;;3.70;99.90;;;;;;5064869;28;20251;-78
2021/03/19 11:51:28;;;;;;;2.80;2.60;;;4.00;99.90;;;;;;5026495;28;20207;-80
2021/03/19 11:53:54;;;;;;;2.50;2.30;;;4.30;99.90;;;;;;5072429;28;20230;-79
2021/03/19 11:56:21;;;;;;;3.63;2.85;;;4.50;99.90;;;;;;5078275;28;20187;-79
2021/03/19 11:58:47;;;;;;;2.83;2.50;;;4.60;99.90;;;;;;5078169;28;20203;-78
2021/03/19 12:01:14;;;;;;;3.35;2.40;;;4.40;99.90;;;;;;5073281;28;20203;-79
2021/03/19 12:03:42;;;;;;;3.10;1.83;;;4.10;99.90;;;;;;5064562;28;20223;-80
2021/03/19 12:06:11;;;;;;;1.65;1.55;;;3.80;99.90;;;;;;5067600;28;20198;-80
2021/03/19 12:08:39;;;;;;;2.35;2.08;;;3.80;99.90;;;;;;5074257;28;20681;-80
2021/03/19 12:11:07;;;;;;;2.55;1.50;;;3.70;99.90;;;;;;5070861;28;20206;-79
2021/03/19 12:13:33;;;;;;;7.65;2.20;;;3.60;99.90;;;;;;5069469;28;20245;-80
2021/03/19 12:16:00;;;;;;;2.72;2.53;;;3.60;99.90;;;;;;5061708;28;20258;-78
2021/03/19 12:18:29;;;;;;;2.30;2.10;;;3.80;99.90;;;;;;5062712;28;20234;-79
2021/03/19 12:20:57;;;;;;;4.22;2.65;;;4.00;99.90;;;;;;5061132;28;20203;-79
2021/03/19 12:23:24;;;;;;;2.95;2.15;;;4.10;99.90;;;;;;5063579;28;20219;-78
2021/03/19 12:25:51;;;;;;;3.95;2.65;;;4.30;99.90;;;;;;5062401;28;20199;-79
2021/03/19 12:28:19;;;;;;;2.10;1.90;;;4.70;99.90;;;;;;5062157;28;20539;-81
2021/03/19 12:30:48;;;;;;;1.95;1.80;;;4.70;99.90;;;;;;5069595;28;20207;-80
2021/03/19 12:33:15;;;;;;;3.67;2.58;;;4.70;99.90;;;;;;5069225;28;20230;-79
2021/03/19 12:35:43;;;;;;;3.95;3.60;;;4.50;99.90;;;;;;5071399;28;20219;-79
2021/03/19 12:38:10;;;;;;;2.13;1.90;;;4.50;99.90;;;;;;5069817;28;20294;-79
2021/03/19 12:40:36;;;;;;;2.60;2.20;;;4.40;99.90;;;;;;5068018;28;20585;-81
2021/03/19 12:43:05;;;;;;;2.58;2.33;;;4.10;99.90;;;;;;5061031;28;20241;-79
2021/03/19 12:45:33;;;;;;;2.20;2.00;;;3.90;99.90;;;;;;5059375;28;20202;-78
2021/03/19 12:48:00;;;;;;;3.92;1.75;;;3.80;99.90;;;;;;5059347;28;20631;-80
2021/03/19 12:50:28;;;;;;;2.70;1.98;;;3.80;99.90;;;;;;5060897;28;20229;-79
2021/03/19 12:52:55;;;;;;;2.92;2.00;;;3.90;99.90;;;;;;5059336;28;20227;-80
2021/03/19 12:55:23;;;;;;;2.92;1.60;;;4.10;99.90;;;;;;5064148;28;20223;-78
2021/03/19 12:57:49;;;;;;;1.75;1.65;;;4.10;99.90;;;;;;5064793;28;20206;-79
2021/03/19 13:00:18;;;;;;;2.75;1.95;;;4.10;99.90;;;;;;5061981;28;20203;-79
2021/03/19 13:02:44;;;;;;;2.50;1.70;;;3.90;99.90;;;;;;5062595;28;20218;-79
2021/03/19 13:05:12;;;;;;;4.43;1.83;;;4.10;99.90;;;;;;5061427;28;20210;-79
2021/03/19 13:07:39;;;;;;;2.35;2.13;;;3.90;99.90;;;;;;5060605;28;20202;-80
2021/03/19 13:10:06;;;;;;;1.80;1.70;;;4.00;99.90;;;;;;5064780;28;20214;-79
2021/03/19 13:12:32;;;;;;;3.90;2.13;;;4.30;99.90;;;;;;5060988;28;20223;-79
2021/03/19 13:14:58;;;;;;;6.15;1.40;;;4.30;99.90;;;;;;5059865;28;20223;-79